x

South Bermuda - 300 Nm Sse Of Bermuda (41049) Wave Buoy

10:50am - Thu 27th Apr 2017 All times are UTC.

  • Sig Wave height 4.9ft
  • Swell Direction
  • Peak Period 6s
  • Average Period 6s
  • Wind
    13mph, 16mph gusts
  • Sea Temp 72°f
  • Air Temp 73°f
  • Sea Pressure 1021.5mb

More Historic Weather Station data

Upgrade to MSW Pro to gain access to the past 30 days of data for over 8000 Wavebouys and Weather Stations around the globe.

Join Pro

Comparision Forecast

View Surf forecast
   
Thu 04/27 10:50am 5ft 6s 6s 13 16 mph 1021.5mb 72f 73f
9:50am 5ft 7s 6s 13 18 mph 1020.8mb 72f 72f
8:50am 5ft 6s 5s 13 16 mph 1020.4mb 72f 72f
7:50am 5ft 6s 5s 13 16 mph 1020.1mb 72f 72f
6:50am 5ft 7s 6s 13 16 mph 1020.3mb 72f 72f
5:50am 5ft 6s 5s 13 18 mph 1020.3mb 72f 72f
4:50am 5ft 7s 5s 16 18 mph 1020.9mb 72f 72f
3:50am 5ft 6s 5s 16 20 mph 1021.1mb 72f 72f
2:50am 5ft 7s 6s 16 20 mph 1021mb 72f 72f
1:50am 5ft 7s 6s 16 18 mph 1021.5mb 72f 72f
Wed 04/26 11:50pm 5ft 7s 6s 13 16 mph 1020.3mb 72f 73f
10:50pm 5.5ft 6s 6s 13 16 mph 1020mb 73f 73f
9:50pm 5.5ft 7s 6s 13
mph
1019.7mb 73f 73f
8:50pm 5ft 7s 6s 11 13 mph 1019.3mb 73f 73f
7:50pm 5.5ft 7s 6s 11 13 mph 1019mb 73f 73f
6:50pm 5.5ft 7s 6s 11 13 mph 1019.2mb 73f 73f
5:50pm 5.5ft 7s 6s 13 16 mph 1019.5mb 72f 73f
4:50pm 5.5ft 7s 6s 11 13 mph 1019.9mb 72f 73f
3:50pm 5.5ft 7s 6s 11 13 mph 1020.2mb 72f 73f
2:50pm 5.5ft 6s 6s 11 13 mph 1020.2mb 72f 73f
1:50pm 5.5ft 7s 6s 13
mph
1019.8mb 72f 73f
12:50pm 5.5ft 7s 6s 13 16 mph 1019.4mb 72f 73f
11:50am 6ft 7s 6s 13 16 mph 1018.9mb 72f 73f
10:50am 5.5ft 8s 6s 13 16 mph 1018.5mb 72f 72f
9:50am 6ft 7s 6s 13 16 mph 1018mb 72f 72f
8:50am 5.5ft 6s 6s 13 16 mph 1017.6mb 72f 72f
7:50am 6ft 6s 6s 13 16 mph 1017.3mb 72f 72f
6:50am 5.5ft 5s 6s 16 18 mph 1017.1mb 72f 72f
5:50am 5.5ft 12s 6s 11 13 mph 1018.1mb 72f 72f
4:50am 5.5ft 13s 6s 16 18 mph 1018.2mb 72f 72f
3:50am 5ft 7s 6s 18 20 mph 1018.4mb 72f 72f
2:50am 5ft 7s 6s 16 18 mph 1019.1mb 72f 72f
1:50am 5ft 12s 6s 13 18 mph 1019.2mb 73f 72f
12:50am 5ft 13s 6s 13 18 mph 1018.9mb 73f 73f
Tue 04/25 11:50pm 5ft 13s 5s 13 16 mph 1018.3mb 73f 73f
10:50pm 5.5ft 12s 6s 13 16 mph 1018.2mb 73f 73f
9:50pm 5ft 14s 5s 18 22 mph 1017.4mb 73f 73f
8:50pm 5ft 13s 6s 16 20 mph 1017.2mb 73f 72f
7:50pm 4.5ft 6s 6s 18 20 mph 1017.7mb 73f 72f
6:50pm 5ft 14s 6s 18 20 mph 1018.4mb 73f 72f
5:50pm 4.5ft 14s 6s 16 18 mph 1019.1mb 73f 72f
4:50pm 5ft 13s 6s 13 16 mph 1020.2mb 73f 73f
3:50pm 5ft 10s 6s 13 16 mph 1020.7mb 73f 73f
2:50pm 4.5ft 14s 6s 11 13 mph 1020.7mb 73f 73f
1:50pm 4.5ft 13s 6s 13 16 mph 1020.4mb 73f 73f
12:50pm 5ft 14s 6s 13 16 mph 1020.1mb 73f 72f
11:50am 5ft 5s 6s 16 18 mph 1019.4mb 73f 72f
10:50am 4.5ft 14s  -  16 18 mph 1019.2mb 73f 72f
9:50am 4.5ft 14s 5s 18 20 mph 1018.4mb 73f 72f
8:50am 4.5ft 15s 6s 16 18 mph 1018.1mb 73f 72f
7:50am 5ft 14s 6s 16 20 mph 1017.9mb 73f 71f
6:50am 5ft 14s 6s 18 20 mph 1018.1mb 73f 71f
5:50am 4.5ft 14s 5s 18 20 mph 1018.7mb 73f 72f
4:50am 4.5ft 10s 5s 18 22 mph 1019.4mb 73f 72f
3:50am 5ft 14s 6s 16 18 mph 1020.4mb 73f 72f
2:50am 4.5ft 9s 6s 16 20 mph 1020.8mb 73f 72f
1:50am 4.5ft 10s 5s 16 20 mph 1020.9mb 73f 72f
12:50am 4.5ft 10s 6s 18 20 mph 1020.3mb 73f 72f
Mon 04/24 11:50pm 4.5ft 11s 6s 18 20 mph 1019.7mb 73f 72f
10:50pm 4.5ft 10s 6s 13 18 mph 1019.9mb 73f 72f
9:50pm 4ft 10s 6s 16 18 mph 1019.4mb 73f 72f
8:50pm 4ft 10s 6s 13 16 mph 1019.4mb 73f 73f
7:50pm 4ft 10s 6s 11 13 mph 1019.6mb 73f 72f
6:50pm 3.5ft 10s 6s 13 18 mph 1019.6mb 73f 72f
5:50pm 4ft 10s 6s 13 16 mph 1020.3mb 73f 72f
4:50pm 4ft 11s 6s 13 16 mph 1020.8mb 73f 71f
3:50pm 4ft 10s 6s 16 18 mph 1021.2mb 73f 71f
2:50pm 4.5ft 10s 6s 13 16 mph 1021.6mb 73f 71f
1:50pm 4.5ft 11s 7s 13 16 mph 1021.7mb 73f 71f
11:50am 4.5ft 10s 7s 11 13 mph 1021.2mb 73f 72f
10:50am 4.5ft 10s 7s 11 13 mph 1020.7mb 73f 71f
9:50am 4.5ft 10s 7s 11 13 mph 1019.9mb 73f 71f
8:50am 4.5ft 10s 8s 11
mph
1019.6mb 73f 71f
7:50am 5ft 11s 8s 9 11 mph 1019.6mb 73f 71f
6:50am 5ft 9s 8s 9 13 mph 1020mb 73f 71f
5:50am 5ft 11s 8s 7 9 mph 1020.3mb 73f 71f
4:50am 5ft 11s 8s 7 9 mph 1021mb 73f 71f
3:50am 5ft 11s 8s 7 9 mph 1021.2mb 73f 71f
2:50am 6ft 11s 9s 9 11 mph 1021.2mb 73f 71f
1:50am 6ft 11s 9s 7 9 mph 1021.4mb 74f 72f
12:50am 6.5ft 11s 9s 4 7 mph 1021.4mb 74f 72f
Sun 04/23 11:50pm 6.5ft 11s 9s 2 4 mph 1020.9mb 75f 72f
10:50pm 6.5ft 11s 9s 4
mph
1020.3mb 76f 72f
9:50pm 6.5ft 11s 9s 2
mph
1019.9mb 77f 74f
8:50pm 6.5ft 11s 9s  -  2 mph 1019.8mb 77f 74f
7:50pm 6ft 11s 9s 2 4 mph 1019.8mb 77f 73f
6:50pm 6ft 12s 8s 2 4 mph 1020.1mb 77f 72f
5:50pm 6.5ft 13s 9s 2 7 mph 1020.7mb 77f 72f
4:50pm 6.5ft 11s 9s  -  4 mph 1021.1mb 78f 72f
3:50pm 7ft 12s 9s  -  2 mph 1021.3mb 76f 71f
2:50pm 6.5ft 11s 9s  -  2 mph 1021.8mb 75f 72f
1:50pm 6.5ft 11s 9s  -  2 mph 1021.5mb 73f 71f
12:50pm 7ft 11s 8s 2 7 mph 1021mb 73f 71f